Time;durP1;ratioP1;P1;durP2;ratioP2;P2;SDS_P1;SDS_P2;PMS_P1;PMS_P2;Temp;Humidity;BMP_temperature;BMP_pressure;BME280_temperature;BME280_humidity;BME280_pressure;Samples;Min_cycle;Max_cycle;Signal;HPM_P1;HPM_P2
2023/03/23 00:01:19;;;;;;;7.70;4.88;;;13.60;96.70;;;;;;5083813;28;20044;-72
2023/03/23 00:03:47;;;;;;;5.90;4.65;;;13.60;96.70;;;;;;5096441;27;20105;-71
2023/03/23 00:06:19;;;;;;;5.38;4.38;;;13.50;96.70;;;;;;5079889;28;20062;-71
2023/03/23 00:08:47;;;;;;;4.93;3.80;;;13.60;96.70;;;;;;5064029;28;20043;-71
2023/03/23 00:11:14;;;;;;;5.82;3.90;;;13.60;96.70;;;;;;5098673;27;20035;-71
2023/03/23 00:13:41;;;;;;;6.03;4.03;;;13.50;96.70;;;;;;5081454;28;20048;-70
2023/03/23 00:16:16;;;;;;;7.93;4.38;;;13.50;96.70;;;;;;5080017;28;20539;-70
2023/03/23 00:18:44;;;;;;;7.35;3.78;;;13.50;96.70;;;;;;5100605;27;20512;-70
2023/03/23 00:21:11;;;;;;;6.80;4.03;;;13.60;96.70;;;;;;5081060;28;20051;-70
2023/03/23 00:23:44;;;;;;;5.45;4.00;;;13.60;96.70;;;;;;5081084;28;20048;-71
2023/03/23 00:26:11;;;;;;;6.18;4.28;;;13.60;96.70;;;;;;5063303;28;20082;-71
2023/03/23 00:28:38;;;;;;;5.70;3.53;;;13.50;96.70;;;;;;5080794;28;20040;-70
2023/03/23 00:31:07;;;;;;;6.68;3.58;;;13.40;96.70;;;;;;5098546;27;20028;-71
2023/03/23 00:33:40;;;;;;;6.05;3.47;;;13.50;96.70;;;;;;5080066;28;20121;-70
2023/03/23 00:36:08;;;;;;;7.15;3.20;;;13.60;96.70;;;;;;5080190;28;20052;-71
2023/03/23 00:38:50;;;;;;;4.25;2.80;;;13.50;96.70;;;;;;5064634;28;20063;-70
2023/03/23 00:41:20;;;;;;;4.13;2.90;;;13.40;96.70;;;;;;5079460;28;20127;-70
2023/03/23 00:43:48;;;;;;;4.78;2.85;;;13.40;96.70;;;;;;5080029;28;20047;-70
2023/03/23 00:46:15;;;;;;;3.60;2.88;;;13.40;96.70;;;;;;5082476;28;20390;-70
2023/03/23 00:48:44;;;;;;;6.75;3.38;;;13.50;96.70;;;;;;5063550;28;20071;-71
2023/03/23 00:51:11;;;;;;;4.53;3.60;;;13.50;96.70;;;;;;5065795;28;20048;-70
2023/03/23 00:53:39;;;;;;;3.95;3.38;;;13.50;96.70;;;;;;5082686;28;20497;-70
2023/03/23 00:56:09;;;;;;;6.55;3.55;;;13.50;96.70;;;;;;5080606;28;20334;-71
2023/03/23 00:58:35;;;;;;;5.32;3.20;;;13.50;96.70;;;;;;5082681;28;20044;-71
2023/03/23 01:01:02;;;;;;;3.80;3.30;;;13.40;96.70;;;;;;5062819;28;20040;-71
2023/03/23 01:03:29;;;;;;;6.20;3.58;;;13.50;96.70;;;;;;5100617;27;20489;-70
2023/03/23 01:06:05;;;;;;;4.85;3.65;;;13.50;96.70;;;;;;5083537;28;20535;-71
2023/03/23 01:08:32;;;;;;;6.03;3.58;;;13.40;96.70;;;;;;5061366;28;20079;-71
2023/03/23 01:11:06;;;;;;;4.43;4.03;;;13.30;96.70;;;;;;5079345;28;20856;-70
2023/03/23 01:13:34;;;;;;;7.97;4.80;;;13.20;96.70;;;;;;5057461;28;20043;-71
2023/03/23 01:16:01;;;;;;;8.25;4.03;;;13.20;96.70;;;;;;5082649;28;20130;-71
2023/03/23 01:18:28;;;;;;;4.40;3.58;;;13.30;96.70;;;;;;5062840;28;20051;-71
2023/03/23 01:20:55;;;;;;;4.25;3.25;;;13.30;96.70;;;;;;5076709;28;20036;-70
2023/03/23 01:23:21;;;;;;;4.65;3.83;;;13.30;96.70;;;;;;5061946;28;20516;-70
2023/03/23 01:25:49;;;;;;;5.25;3.78;;;13.30;96.70;;;;;;5081743;28;20040;-71
2023/03/23 01:28:15;;;;;;;5.45;4.63;;;13.30;96.70;;;;;;5062481;28;20040;-71
2023/03/23 01:30:44;;;;;;;7.72;4.75;;;13.20;96.70;;;;;;5061305;28;20062;-70
2023/03/23 01:33:10;;;;;;;7.15;4.72;;;13.00;96.70;;;;;;5061859;28;20040;-71
2023/03/23 01:35:38;;;;;;;5.70;4.32;;;13.10;96.70;;;;;;5080106;28;20706;-70
2023/03/23 01:38:05;;;;;;;7.65;5.18;;;13.20;96.70;;;;;;5079875;28;20040;-71
2023/03/23 01:40:31;;;;;;;8.05;5.60;;;13.30;96.70;;;;;;5066853;28;20047;-71
2023/03/23 01:42:58;;;;;;;8.18;5.50;;;13.10;96.70;;;;;;5064897;28;20209;-70
2023/03/23 01:45:31;;;;;;;6.55;5.50;;;12.90;96.70;;;;;;5053720;28;20050;-70
2023/03/23 01:48:11;;;;;;;12.20;5.82;;;12.80;96.70;;;;;;5066220;28;20063;-70
2023/03/23 01:50:44;;;;;;;8.70;5.38;;;12.90;96.70;;;;;;5058513;28;20164;-70
2023/03/23 01:53:11;;;;;;;7.75;5.35;;;12.90;96.70;;;;;;5059073;28;20073;-71
2023/03/23 01:55:40;;;;;;;7.50;5.45;;;13.00;96.70;;;;;;5060966;28;20460;-71
2023/03/23 01:58:09;;;;;;;6.97;6.25;;;13.20;96.70;;;;;;5059896;28;20124;-71
2023/03/23 02:00:37;;;;;;;7.03;6.28;;;13.20;96.70;;;;;;5096607;28;20150;-70
2023/03/23 02:03:04;;;;;;;9.13;7.15;;;13.20;96.70;;;;;;5079245;28;20071;-71
2023/03/23 02:05:38;;;;;;;10.35;8.32;;;13.30;96.70;;;;;;5047489;28;20126;-71
2023/03/23 02:08:24;;;;;;;8.70;6.75;;;13.30;96.70;;;;;;5060378;28;20792;-70
2023/03/23 02:10:50;;;;;;;8.15;6.30;;;13.40;96.70;;;;;;5079933;28;20741;-70
2023/03/23 02:13:17;;;;;;;7.80;6.28;;;13.30;96.70;;;;;;5045885;28;20537;-70
2023/03/23 02:15:49;;;;;;;10.00;5.97;;;13.30;96.70;;;;;;5064376;28;20040;-70
2023/03/23 02:18:36;;;;;;;8.20;6.70;;;13.30;96.70;;;;;;5062719;28;20052;-71
2023/03/23 02:21:46;;;;;;;7.90;6.43;;;13.30;96.70;;;;;;5054720;28;20048;-71
2023/03/23 02:24:40;;;;;;;10.77;6.35;;;13.30;96.70;;;;;;5075927;28;20036;-70
2023/03/23 02:27:11;;;;;;;9.75;7.03;;;13.30;96.70;;;;;;5040279;28;20383;-70
2023/03/23 02:30:11;;;;;;;9.18;6.63;;;13.40;96.70;;;;;;5079749;28;20048;-70
2023/03/23 02:33:01;;;;;;;8.60;6.78;;;13.40;96.70;;;;;;5058154;28;20071;-70
2023/03/23 02:35:34;;;;;;;12.50;7.55;;;13.40;96.70;;;;;;5004653;28;20052;-71
2023/03/23 02:38:05;;;;;;;12.30;8.32;;;13.50;96.70;;;;;;5079817;28;20044;-71
2023/03/23 02:40:37;;;;;;;12.23;7.38;;;13.50;96.70;;;;;;5080816;28;20602;-70
2023/03/23 02:43:09;;;;;;;8.35;7.50;;;13.50;96.70;;;;;;5079074;28;20063;-71
2023/03/23 02:45:37;;;;;;;13.18;8.10;;;13.50;96.70;;;;;;5077956;28;20041;-70
2023/03/23 02:48:05;;;;;;;11.10;8.18;;;13.50;96.70;;;;;;5059894;28;20517;-71
2023/03/23 02:50:35;;;;;;;13.85;9.02;;;13.50;96.70;;;;;;5062754;28;20040;-72
2023/03/23 02:53:07;;;;;;;14.65;10.43;;;13.50;96.70;;;;;;5081325;28;20039;-70
2023/03/23 02:55:40;;;;;;;16.60;9.55;;;13.50;96.70;;;;;;5053987;28;20127;-70
2023/03/23 02:58:09;;;;;;;13.70;9.00;;;13.50;96.70;;;;;;5079113;28;20044;-71
2023/03/23 03:00:36;;;;;;;12.75;8.95;;;13.50;96.70;;;;;;5096287;28;20057;-71
2023/03/23 03:03:05;;;;;;;12.18;8.23;;;13.40;96.70;;;;;;5082827;28;20668;-70
2023/03/23 03:05:43;;;;;;;22.33;12.75;;;13.30;96.70;;;;;;5058560;28;20094;-70
2023/03/23 03:08:18;;;;;;;24.33;13.77;;;13.20;96.70;;;;;;5080708;28;20788;-71
2023/03/23 03:10:52;;;;;;;15.38;9.68;;;13.20;96.70;;;;;;5062433;28;20045;-70
2023/03/23 03:13:27;;;;;;;12.88;9.02;;;13.20;96.70;;;;;;5055705;28;20471;-70
2023/03/23 03:15:59;;;;;;;17.30;10.57;;;13.20;96.70;;;;;;5060623;28;20036;-70
2023/03/23 03:18:32;;;;;;;16.70;10.80;;;13.30;96.70;;;;;;5082830;28;20044;-71
2023/03/23 03:21:06;;;;;;;13.52;9.10;;;13.30;96.70;;;;;;5082619;28;20506;-70
2023/03/23 03:23:36;;;;;;;17.33;10.40;;;13.10;96.70;;;;;;5059848;28;20048;-71
2023/03/23 03:26:05;;;;;;;16.00;11.15;;;13.10;96.70;;;;;;5066291;28;20181;-70
2023/03/23 03:28:47;;;;;;;15.38;9.48;;;13.00;96.70;;;;;;5068257;28;20044;-71
2023/03/23 03:31:18;;;;;;;12.00;8.70;;;13.00;96.70;;;;;;5058045;28;20036;-71
2023/03/23 03:33:46;;;;;;;13.23;8.30;;;12.90;96.70;;;;;;5083663;28;20074;-71
2023/03/23 03:36:20;;;;;;;9.57;7.70;;;12.90;96.70;;;;;;5048771;28;20135;-71
2023/03/23 03:38:50;;;;;;;9.98;8.18;;;13.10;96.70;;;;;;5074866;28;20118;-71
2023/03/23 03:41:18;;;;;;;13.23;8.00;;;13.10;96.70;;;;;;5049701;28;20067;-70
2023/03/23 03:43:46;;;;;;;10.82;7.38;;;13.10;96.70;;;;;;5065315;28;20166;-71
2023/03/23 03:46:13;;;;;;;12.27;7.47;;;13.10;96.70;;;;;;5063722;28;20089;-71
2023/03/23 03:48:39;;;;;;;11.07;7.50;;;13.10;96.70;;;;;;5063057;28;20048;-70
2023/03/23 03:51:06;;;;;;;8.85;7.10;;;13.10;96.70;;;;;;5089554;28;20040;-70
2023/03/23 03:53:38;;;;;;;7.85;6.28;;;13.10;96.70;;;;;;5066433;28;20623;-70
2023/03/23 03:56:07;;;;;;;10.00;6.43;;;13.10;96.70;;;;;;5069993;28;20048;-71
2023/03/23 03:58:42;;;;;;;8.48;5.70;;;13.10;96.70;;;;;;5064465;28;20032;-70
2023/03/23 04:01:23;;;;;;;6.03;4.97;;;13.10;96.70;;;;;;5068821;28;21096;-71
2023/03/23 04:03:51;;;;;;;5.93;4.43;;;13.10;96.70;;;;;;5054238;28;20039;-70
2023/03/23 04:06:27;;;;;;;9.02;4.93;;;13.00;96.70;;;;;;5059154;28;20036;-70
2023/03/23 04:08:56;;;;;;;6.88;5.18;;;13.10;96.70;;;;;;5064621;28;20052;-71
2023/03/23 04:11:23;;;;;;;6.35;4.70;;;13.10;96.70;;;;;;5069114;28;20047;-70
2023/03/23 04:13:51;;;;;;;6.70;4.45;;;13.00;96.70;;;;;;5060268;28;20634;-70
2023/03/23 04:16:23;;;;;;;9.18;4.82;;;13.10;96.70;;;;;;5060518;28;20182;-70
2023/03/23 04:18:50;;;;;;;6.20;4.78;;;13.00;96.70;;;;;;5064382;28;20047;-70
2023/03/23 04:21:17;;;;;;;5.30;4.50;;;13.00;96.70;;;;;;5066492;28;20040;-70
2023/03/23 04:23:48;;;;;;;5.63;3.70;;;13.00;96.70;;;;;;5082782;28;20044;-70
2023/03/23 04:26:18;;;;;;;7.13;4.63;;;12.90;96.70;;;;;;5063760;28;20044;-70
2023/03/23 04:28:50;;;;;;;8.50;3.75;;;13.00;96.70;;;;;;5066779;28;20476;-71
2023/03/23 04:31:24;;;;;;;6.05;3.80;;;13.00;96.70;;;;;;5066538;28;20048;-71
2023/03/23 04:33:55;;;;;;;6.57;3.70;;;13.00;96.70;;;;;;5061647;28;20086;-70
2023/03/23 04:36:25;;;;;;;5.70;3.58;;;13.00;96.70;;;;;;5065496;28;20085;-70
2023/03/23 04:39:06;;;;;;;5.78;3.50;;;13.10;96.70;;;;;;5060231;28;20040;-70
2023/03/23 04:41:36;;;;;;;6.25;4.10;;;13.10;96.70;;;;;;5064114;28;20085;-71
2023/03/23 04:44:23;;;;;;;5.65;3.50;;;13.00;96.70;;;;;;5067101;28;20036;-71
2023/03/23 04:47:01;;;;;;;8.10;4.13;;;13.00;96.70;;;;;;5060615;28;20047;-70
2023/03/23 04:49:32;;;;;;;5.15;3.63;;;13.00;96.70;;;;;;5060539;28;20040;-70
2023/03/23 04:52:11;;;;;;;6.95;4.80;;;12.90;96.70;;;;;;5066016;28;20090;-70
2023/03/23 04:54:49;;;;;;;6.32;4.40;;;12.80;96.70;;;;;;5083116;28;20123;-70
2023/03/23 04:57:18;;;;;;;4.38;3.97;;;12.70;96.70;;;;;;5065404;28;20065;-70
2023/03/23 04:59:57;;;;;;;5.18;3.97;;;12.70;96.70;;;;;;5068476;28;20054;-70
2023/03/23 05:02:39;;;;;;;5.35;4.05;;;12.70;96.70;;;;;;5068218;28;20040;-71
2023/03/23 05:05:07;;;;;;;5.25;4.28;;;12.70;96.70;;;;;;5075380;28;20040;-70
2023/03/23 05:07:34;;;;;;;4.72;4.05;;;12.80;96.70;;;;;;5062385;28;20683;-70
2023/03/23 05:10:02;;;;;;;7.85;4.38;;;12.90;96.70;;;;;;5062052;28;20043;-70
2023/03/23 05:12:32;;;;;;;9.13;5.13;;;12.90;96.70;;;;;;5064455;28;20595;-70
2023/03/23 05:15:03;;;;;;;9.15;6.20;;;12.90;96.70;;;;;;5062752;28;20857;-70
2023/03/23 05:17:32;;;;;;;7.50;5.82;;;12.90;96.70;;;;;;5061986;28;20062;-70
2023/03/23 05:20:09;;;;;;;7.40;5.40;;;12.90;96.70;;;;;;5054932;28;20036;-70
2023/03/23 05:22:41;;;;;;;7.85;5.55;;;12.90;96.70;;;;;;5078928;28;20036;-71
2023/03/23 05:25:10;;;;;;;8.70;5.90;;;13.00;96.70;;;;;;5060312;28;20831;-70
2023/03/23 05:27:48;;;;;;;10.52;5.43;;;13.00;96.70;;;;;;5062685;28;20036;-71
2023/03/23 05:30:23;;;;;;;8.48;5.30;;;13.00;96.70;;;;;;5062439;28;20476;-70
2023/03/23 05:32:52;;;;;;;7.25;6.18;;;13.00;96.70;;;;;;5057874;28;20063;-70
2023/03/23 05:35:36;;;;;;;6.32;5.18;;;13.00;96.70;;;;;;5081028;28;20127;-70
2023/03/23 05:38:04;;;;;;;6.03;5.43;;;12.80;96.70;;;;;;5048746;28;20079;-71
2023/03/23 05:40:31;;;;;;;8.18;5.63;;;12.70;96.70;;;;;;5079746;28;20733;-71
2023/03/23 05:43:05;;;;;;;7.22;5.32;;;12.60;96.70;;;;;;5056551;28;20560;-71
2023/03/23 05:45:52;;;;;;;7.03;5.70;;;12.60;96.70;;;;;;5080116;28;20058;-70
2023/03/23 05:48:18;;;;;;;6.43;5.50;;;12.70;96.70;;;;;;5080292;28;20510;-71
2023/03/23 05:50:45;;;;;;;6.03;5.45;;;12.80;96.70;;;;;;5063948;28;20096;-70
2023/03/23 05:53:12;;;;;;;6.35;5.38;;;12.80;96.70;;;;;;5061536;28;20127;-71
2023/03/23 05:55:39;;;;;;;5.40;4.80;;;12.80;96.70;;;;;;5080856;28;20534;-70
2023/03/23 05:58:17;;;;;;;6.68;4.72;;;12.80;96.70;;;;;;5081476;28;20077;-72
2023/03/23 06:00:46;;;;;;;10.13;4.90;;;12.90;96.70;;;;;;5061608;28;20043;-70
2023/03/23 06:03:24;;;;;;;6.85;5.20;;;13.00;96.70;;;;;;5080416;28;20502;-71
2023/03/23 06:05:58;;;;;;;7.05;4.78;;;13.00;96.70;;;;;;5081525;28;20070;-70
2023/03/23 06:08:33;;;;;;;6.20;4.43;;;13.00;96.70;;;;;;5057096;28;20089;-71
2023/03/23 06:11:00;;;;;;;6.05;4.70;;;13.10;96.70;;;;;;5055719;28;20619;-70
2023/03/23 06:13:30;;;;;;;5.07;4.22;;;13.10;96.70;;;;;;5080210;28;20146;-71
2023/03/23 06:16:05;;;;;;;6.65;4.35;;;13.10;96.70;;;;;;5062879;28;20048;-71
2023/03/23 06:18:50;;;;;;;6.32;4.82;;;13.20;96.70;;;;;;5050768;28;20051;-71
2023/03/23 06:21:24;;;;;;;5.72;4.60;;;13.30;96.70;;;;;;5051629;28;20043;-71
2023/03/23 06:23:58;;;;;;;5.22;4.70;;;13.30;96.70;;;;;;5060006;28;20036;-71
2023/03/23 06:26:32;;;;;;;6.28;4.82;;;13.40;96.70;;;;;;5080299;28;20048;-71
2023/03/23 06:29:10;;;;;;;6.93;4.97;;;13.40;96.70;;;;;;5046907;28;20043;-73
2023/03/23 06:31:42;;;;;;;8.30;4.90;;;13.40;96.70;;;;;;5060355;28;20044;-71
2023/03/23 06:34:09;;;;;;;6.07;5.28;;;13.50;96.70;;;;;;5044358;28;20641;-71
2023/03/23 06:36:57;;;;;;;8.18;4.85;;;13.60;96.70;;;;;;5072717;28;20664;-72
2023/03/23 06:39:46;;;;;;;7.07;4.82;;;13.60;96.70;;;;;;5076726;28;20189;-72
2023/03/23 06:42:28;;;;;;;5.82;4.78;;;13.60;96.70;;;;;;5067871;28;20528;-71
2023/03/23 06:45:25;;;;;;;6.47;5.00;;;13.70;96.70;;;;;;5041178;28;20805;-71
2023/03/23 06:48:07;;;;;;;9.38;6.07;;;13.80;96.70;;;;;;5066301;28;20050;-72
2023/03/23 06:50:38;;;;;;;9.07;5.85;;;13.90;96.70;;;;;;5063960;28;20040;-72
2023/03/23 06:53:06;;;;;;;9.90;6.25;;;14.00;96.70;;;;;;5066234;28;20070;-73
2023/03/23 06:55:33;;;;;;;7.88;6.55;;;14.00;96.70;;;;;;5063603;28;20044;-71
2023/03/23 06:58:03;;;;;;;8.57;6.78;;;14.00;96.70;;;;;;5064476;28;20448;-71
2023/03/23 07:00:31;;;;;;;8.73;7.60;;;14.10;96.70;;;;;;5062620;28;20047;-71
2023/03/23 07:02:58;;;;;;;7.43;6.35;;;14.10;96.70;;;;;;5063789;28;20059;-73
2023/03/23 07:05:26;;;;;;;6.72;6.10;;;14.20;96.70;;;;;;5094046;28;20160;-71
2023/03/23 07:07:53;;;;;;;10.07;7.40;;;14.20;96.70;;;;;;5074529;28;20035;-71
2023/03/23 07:10:32;;;;;;;9.32;7.60;;;14.20;96.70;;;;;;5066157;28;20040;-72
2023/03/23 07:13:00;;;;;;;10.15;6.63;;;14.30;96.70;;;;;;5064895;28;20154;-71
2023/03/23 07:15:30;;;;;;;8.60;7.35;;;14.30;96.70;;;;;;5057678;28;20052;-71
2023/03/23 07:17:58;;;;;;;11.65;7.50;;;14.30;96.70;;;;;;5077714;28;20529;-72
2023/03/23 07:20:32;;;;;;;11.93;7.13;;;14.40;96.70;;;;;;5057337;28;20044;-71
2023/03/23 07:23:01;;;;;;;12.15;8.60;;;14.40;96.70;;;;;;5057988;28;20550;-71
2023/03/23 07:25:40;;;;;;;8.88;6.90;;;14.50;96.70;;;;;;5066262;28;20163;-72
2023/03/23 07:28:10;;;;;;;8.60;6.90;;;14.50;96.70;;;;;;5063568;28;20058;-72
2023/03/23 07:30:39;;;;;;;8.35;7.40;;;14.50;96.70;;;;;;5045950;28;20052;-72
2023/03/23 07:33:06;;;;;;;10.48;7.18;;;14.50;96.70;;;;;;5045931;28;20130;-73
2023/03/23 07:35:34;;;;;;;10.65;8.23;;;14.40;96.70;;;;;;5088871;28;20496;-73
2023/03/23 07:38:08;;;;;;;16.08;11.38;;;14.40;96.70;;;;;;5069704;28;20043;-72
2023/03/23 07:40:37;;;;;;;20.98;15.10;;;14.50;96.70;;;;;;5079894;28;20497;-72
2023/03/23 07:43:12;;;;;;;26.63;16.75;;;14.50;96.70;;;;;;5083863;28;20577;-72
2023/03/23 07:45:59;;;;;;;19.08;12.75;;;14.50;96.70;;;;;;5068473;28;20056;-72
2023/03/23 07:48:34;;;;;;;13.35;9.60;;;14.50;96.70;;;;;;5059552;28;20070;-73
2023/03/23 07:51:01;;;;;;;10.98;7.70;;;14.60;96.70;;;;;;5072371;28;20695;-73
2023/03/23 07:53:30;;;;;;;8.27;7.47;;;14.70;96.70;;;;;;5059076;28;20682;-72
2023/03/23 07:56:11;;;;;;;11.70;8.38;;;14.70;96.70;;;;;;5045171;28;20076;-73
2023/03/23 07:59:08;;;;;;;11.32;8.70;;;14.80;96.70;;;;;;5005125;28;20449;-73
2023/03/23 08:01:39;;;;;;;10.02;8.15;;;14.90;96.70;;;;;;4998155;28;20057;-72
2023/03/23 08:04:44;;;;;;;7.07;5.57;;;15.00;96.70;;;;;;4935916;28;20634;-71
2023/03/23 08:07:30;;;;;;;7.65;6.07;;;15.00;96.70;;;;;;4940102;28;20602;-71
2023/03/23 08:10:26;;;;;;;5.93;4.60;;;15.10;96.70;;;;;;4923836;29;20794;-72
2023/03/23 08:13:19;;;;;;;4.30;3.78;;;15.20;96.70;;;;;;4917776;29;20075;-73
2023/03/23 08:16:09;;;;;;;8.10;4.50;;;15.30;96.70;;;;;;4923886;29;20153;-73
2023/03/23 08:19:04;;;;;;;5.82;3.55;;;15.40;96.70;;;;;;4911548;29;20076;-73
2023/03/23 08:22:00;;;;;;;5.38;3.70;;;15.50;96.70;;;;;;4915868;29;20094;-73
2023/03/23 08:24:43;;;;;;;4.53;3.55;;;15.60;96.70;;;;;;4900087;29;20055;-73
2023/03/23 08:27:36;;;;;;;4.80;3.53;;;15.60;96.70;;;;;;4934008;29;20044;-73
2023/03/23 08:30:19;;;;;;;5.28;3.13;;;15.70;96.70;;;;;;4927785;29;20055;-73
2023/03/23 08:33:12;;;;;;;3.67;2.97;;;15.80;96.70;;;;;;4920237;29;20047;-73
2023/03/23 08:35:40;;;;;;;5.70;3.47;;;15.90;96.70;;;;;;5014341;28;20510;-72
2023/03/23 08:38:39;;;;;;;5.15;2.85;;;16.10;96.70;;;;;;5008881;28;20087;-73
2023/03/23 08:41:23;;;;;;;5.10;3.10;;;16.10;96.70;;;;;;5006533;28;20045;-74
2023/03/23 08:43:51;;;;;;;4.20;3.10;;;16.20;96.70;;;;;;5004997;28;20061;-74
2023/03/23 08:46:39;;;;;;;5.43;3.03;;;16.20;96.70;;;;;;4996115;28;20160;-73
2023/03/23 08:49:33;;;;;;;5.40;3.08;;;16.30;96.70;;;;;;4997527;28;20435;-74
2023/03/23 08:52:22;;;;;;;5.18;3.22;;;16.30;96.70;;;;;;5005592;28;20051;-74
2023/03/23 08:55:05;;;;;;;7.35;3.20;;;16.40;96.70;;;;;;5005482;28;20049;-73
2023/03/23 08:57:54;;;;;;;4.30;3.45;;;16.60;96.70;;;;;;5006624;28;20159;-72
2023/03/23 09:00:50;;;;;;;4.85;3.90;;;16.70;96.70;;;;;;4991264;28;20045;-72
2023/03/23 09:03:40;;;;;;;5.32;3.70;;;16.80;96.70;;;;;;4989147;28;20427;-72
2023/03/23 09:06:36;;;;;;;5.93;3.95;;;16.90;96.70;;;;;;4970164;28;20065;-73
2023/03/23 09:09:08;;;;;;;5.35;3.90;;;17.00;96.70;;;;;;5003982;28;20133;-72
2023/03/23 09:11:36;;;;;;;4.45;3.33;;;17.00;96.70;;;;;;5000424;28;20054;-72
2023/03/23 09:14:04;;;;;;;6.60;3.60;;;17.00;96.70;;;;;;5028953;28;20048;-74
2023/03/23 09:16:31;;;;;;;4.38;3.22;;;17.00;96.70;;;;;;5074203;28;20067;-73
2023/03/23 09:18:58;;;;;;;6.45;3.60;;;17.20;96.70;;;;;;5073359;28;20639;-73
2023/03/23 09:21:25;;;;;;;4.28;3.78;;;17.30;96.70;;;;;;5082104;28;20039;-73
2023/03/23 09:23:51;;;;;;;5.78;4.35;;;17.40;96.70;;;;;;5071265;28;20221;-73
2023/03/23 09:26:19;;;;;;;5.75;3.80;;;17.40;96.70;;;;;;5100497;28;20042;-73
2023/03/23 09:28:47;;;;;;;5.22;3.40;;;17.30;96.70;;;;;;5076019;28;20584;-72
2023/03/23 09:31:13;;;;;;;5.38;3.55;;;17.40;96.70;;;;;;5090879;28;20118;-72
2023/03/23 09:33:40;;;;;;;4.25;3.10;;;17.30;96.70;;;;;;5082084;28;20233;-73
2023/03/23 09:36:12;;;;;;;6.28;3.78;;;17.30;96.70;;;;;;5081915;28;20052;-72
2023/03/23 09:38:41;;;;;;;5.63;3.70;;;17.20;96.70;;;;;;5063977;28;20075;-72
2023/03/23 09:41:25;;;;;;;6.43;4.07;;;17.20;96.70;;;;;;5090430;28;20137;-72
2023/03/23 09:44:03;;;;;;;7.18;4.13;;;17.20;96.70;;;;;;5073256;28;20055;-72
2023/03/23 09:46:43;;;;;;;4.85;3.63;;;17.30;96.70;;;;;;5077991;28;20047;-73
2023/03/23 09:49:14;;;;;;;5.35;3.00;;;17.30;96.70;;;;;;5075072;28;20051;-73
2023/03/23 09:51:45;;;;;;;6.10;3.83;;;17.20;96.70;;;;;;5090089;28;20193;-73
2023/03/23 09:54:19;;;;;;;4.30;3.20;;;17.00;96.70;;;;;;5089727;28;20616;-73
2023/03/23 09:56:49;;;;;;;5.47;3.35;;;17.10;96.70;;;;;;5081709;28;20044;-74
2023/03/23 09:59:22;;;;;;;4.35;3.05;;;17.20;96.70;;;;;;5097968;28;20032;-73
2023/03/23 10:01:52;;;;;;;4.57;3.65;;;17.40;96.70;;;;;;5081169;28;20054;-73
2023/03/23 10:04:29;;;;;;;5.88;4.65;;;17.40;96.70;;;;;;5091943;28;20039;-74
2023/03/23 10:07:00;;;;;;;6.55;4.50;;;17.50;96.70;;;;;;5086495;28;20182;-73
2023/03/23 10:09:28;;;;;;;6.47;3.92;;;17.40;96.70;;;;;;5081241;28;20043;-73
2023/03/23 10:12:04;;;;;;;5.65;3.83;;;17.60;96.70;;;;;;5064200;28;20426;-72
2023/03/23 10:14:42;;;;;;;11.52;4.60;;;17.80;96.70;;;;;;5064743;28;20036;-72
2023/03/23 10:17:15;;;;;;;5.43;3.90;;;18.00;96.70;;;;;;5080994;28;20040;-73
2023/03/23 10:19:49;;;;;;;6.72;4.90;;;18.10;96.70;;;;;;5081156;28;20503;-74
2023/03/23 10:22:25;;;;;;;4.70;4.10;;;18.10;96.70;;;;;;5072346;28;20044;-73
2023/03/23 10:24:57;;;;;;;7.10;4.63;;;17.90;96.70;;;;;;5063005;28;20071;-73
2023/03/23 10:27:32;;;;;;;7.55;4.65;;;17.90;96.70;;;;;;5064666;28;20064;-73
2023/03/23 10:30:05;;;;;;;7.00;4.70;;;17.80;96.70;;;;;;5081256;28;20036;-72
2023/03/23 10:32:41;;;;;;;6.97;5.07;;;17.90;96.70;;;;;;5081071;28;20070;-74
2023/03/23 10:35:14;;;;;;;8.50;5.00;;;18.10;96.70;;;;;;5095659;28;20552;-73
2023/03/23 10:37:47;;;;;;;6.35;4.43;;;18.20;96.70;;;;;;5080684;28;20165;-72
2023/03/23 10:40:19;;;;;;;5.07;3.92;;;18.20;96.70;;;;;;5080316;28;20513;-72
2023/03/23 10:42:47;;;;;;;8.90;5.25;;;18.40;96.70;;;;;;5081878;28;20613;-72
2023/03/23 10:45:19;;;;;;;6.97;4.70;;;18.40;96.70;;;;;;5097014;28;20123;-72
2023/03/23 10:47:52;;;;;;;7.88;4.85;;;18.50;96.70;;;;;;5077651;28;20043;-72
2023/03/23 10:50:27;;;;;;;6.20;4.43;;;18.50;96.70;;;;;;5092463;28;20047;-73
2023/03/23 10:52:57;;;;;;;5.93;4.22;;;18.40;96.70;;;;;;5097747;28;20043;-73
2023/03/23 10:55:48;;;;;;;5.63;3.88;;;18.40;96.70;;;;;;5071934;28;20601;-72
2023/03/23 10:58:28;;;;;;;7.35;3.75;;;18.40;96.70;;;;;;5081026;28;20052;-72
2023/03/23 11:00:56;;;;;;;6.32;3.10;;;18.50;96.70;;;;;;5089089;28;20375;-72
2023/03/23 11:03:29;;;;;;;6.07;3.20;;;18.50;96.70;;;;;;5080607;28;20036;-73
2023/03/23 11:05:58;;;;;;;3.00;2.70;;;18.40;96.70;;;;;;5064084;28;20477;-73
2023/03/23 11:08:29;;;;;;;5.70;3.00;;;18.60;96.70;;;;;;5071731;28;20036;-73
2023/03/23 11:10:58;;;;;;;4.32;2.88;;;18.90;96.70;;;;;;5055744;28;20066;-73
2023/03/23 11:13:32;;;;;;;5.30;2.90;;;19.00;96.70;;;;;;5056994;28;20044;-73
2023/03/23 11:16:00;;;;;;;4.25;2.97;;;18.90;96.70;;;;;;5094799;28;20048;-72
2023/03/23 11:18:35;;;;;;;6.18;2.70;;;18.70;96.70;;;;;;5080354;28;20124;-73
2023/03/23 11:21:04;;;;;;;5.03;2.70;;;18.80;96.70;;;;;;5072015;28;20047;-74
2023/03/23 11:23:35;;;;;;;4.28;2.65;;;18.80;96.70;;;;;;5098017;28;20035;-73
2023/03/23 11:26:09;;;;;;;4.53;2.70;;;18.80;96.70;;;;;;5070264;28;20063;-72
2023/03/23 11:28:43;;;;;;;2.83;1.85;;;18.70;96.70;;;;;;5084217;28;20058;-72
2023/03/23 11:31:11;;;;;;;4.38;2.20;;;18.70;96.70;;;;;;5101364;28;20049;-72
2023/03/23 11:33:42;;;;;;;3.42;1.90;;;18.70;96.70;;;;;;5076947;28;20071;-72
2023/03/23 11:36:12;;;;;;;2.13;1.48;;;18.80;96.70;;;;;;5059615;28;20056;-72
2023/03/23 11:38:40;;;;;;;2.75;1.40;;;18.90;96.70;;;;;;5084103;28;20048;-72
2023/03/23 11:41:11;;;;;;;3.10;1.80;;;18.90;96.70;;;;;;5072900;28;20508;-72
2023/03/23 11:43:45;;;;;;;2.47;1.40;;;18.90;96.70;;;;;;5069191;28;20036;-72
2023/03/23 11:46:25;;;;;;;2.97;1.45;;;18.90;96.70;;;;;;5087672;28;20040;-71
2023/03/23 11:48:57;;;;;;;3.30;1.35;;;18.90;96.70;;;;;;5059939;28;20054;-73
2023/03/23 11:51:31;;;;;;;3.97;1.00;;;19.10;96.70;;;;;;5059066;28;20068;-72
2023/03/23 11:54:11;;;;;;;2.15;1.33;;;19.00;96.70;;;;;;5087209;28;20036;-72
2023/03/23 11:56:41;;;;;;;2.67;1.17;;;19.20;96.70;;;;;;5066227;28;20069;-72
2023/03/23 11:59:14;;;;;;;3.63;1.15;;;19.50;96.70;;;;;;5080316;28;20546;-72
2023/03/23 12:01:51;;;;;;;2.05;1.15;;;19.50;96.70;;;;;;5060737;28;20036;-72
2023/03/23 12:04:36;;;;;;;1.38;0.90;;;19.50;96.70;;;;;;5075602;28;20044;-72
2023/03/23 12:07:18;;;;;;;2.80;0.93;;;19.50;96.70;;;;;;5059783;28;20048;-72
2023/03/23 12:09:56;;;;;;;2.40;1.60;;;19.50;96.70;;;;;;5076562;28;20044;-74
2023/03/23 12:12:34;;;;;;;3.78;1.50;;;19.50;96.70;;;;;;5076828;28;20650;-73
2023/03/23 12:15:12;;;;;;;2.80;0.90;;;19.50;96.70;;;;;;5055114;28;20048;-72
2023/03/23 12:17:49;;;;;;;1.73;1.00;;;19.50;96.70;;;;;;5064793;28;20063;-73
2023/03/23 12:20:26;;;;;;;2.45;1.27;;;19.80;96.70;;;;;;5073186;28;20046;-74
2023/03/23 12:23:09;;;;;;;2.42;1.00;;;19.90;96.70;;;;;;5087621;28;20065;-74
2023/03/23 12:26:13;;;;;;;5.72;1.10;;;19.90;96.70;;;;;;5067453;28;20044;-73
2023/03/23 12:29:12;;;;;;;2.55;1.30;;;19.80;96.70;;;;;;5074069;28;20578;-75
2023/03/23 12:31:52;;;;;;;3.33;1.20;;;19.60;96.70;;;;;;5053568;28;20055;-73
2023/03/23 12:34:28;;;;;;;2.83;1.05;;;19.60;96.70;;;;;;5062754;28;20046;-73
2023/03/23 12:37:08;;;;;;;3.38;1.42;;;19.50;96.70;;;;;;5081277;28;20047;-72
2023/03/23 12:40:03;;;;;;;2.42;1.20;;;19.30;96.70;;;;;;5076853;28;20071;-72
2023/03/23 12:42:40;;;;;;;4.90;1.48;;;19.20;96.70;;;;;;5065445;28;20635;-72
2023/03/23 12:45:19;;;;;;;4.70;1.55;;;19.10;96.70;;;;;;5064412;28;20131;-72
2023/03/23 12:47:51;;;;;;;2.58;1.20;;;19.00;96.70;;;;;;5079950;28;20040;-72
2023/03/23 12:50:24;;;;;;;2.15;1.00;;;19.00;96.70;;;;;;5064856;28;20120;-73
2023/03/23 12:52:57;;;;;;;1.75;0.95;;;19.00;96.70;;;;;;5065795;28;20060;-72
2023/03/23 12:55:32;;;;;;;2.50;1.13;;;18.80;96.70;;;;;;5073819;28;20047;-73
2023/03/23 12:58:05;;;;;;;2.75;1.40;;;18.60;96.70;;;;;;5084265;28;20044;-71
2023/03/23 13:00:48;;;;;;;4.32;1.67;;;18.50;96.70;;;;;;5067892;28;20135;-73
2023/03/23 13:03:24;;;;;;;4.18;1.77;;;18.50;96.70;;;;;;5080671;28;20547;-72
2023/03/23 13:05:58;;;;;;;3.83;1.95;;;18.60;96.70;;;;;;5065353;28;20032;-72
2023/03/23 13:08:30;;;;;;;4.13;1.85;;;18.70;96.70;;;;;;5047900;28;20039;-73
2023/03/23 13:11:03;;;;;;;3.70;1.30;;;18.70;96.70;;;;;;5047885;28;20036;-73
2023/03/23 13:13:44;;;;;;;2.83;1.40;;;18.80;96.70;;;;;;5095668;27;20048;-73
2023/03/23 13:16:20;;;;;;;2.80;1.00;;;18.80;96.70;;;;;;5091794;28;20032;-73
2023/03/23 13:18:59;;;;;;;1.75;1.00;;;19.00;96.70;;;;;;5060614;28;20105;-73
2023/03/23 13:21:30;;;;;;;2.45;1.13;;;19.10;96.70;;;;;;5075467;28;20610;-73